EPSC/SZZ METAR and TAF weather

Enter ICAO airport designator
Station Type Date Time Source
EPSC METAR 2019/05/20 10:30 UTC NOAA

EPSC 201030Z 09010KT 050V110 9999 FEW038 24/15 Q1003


Station Type Date Time Source
EPSC Decoded METAR 2019/05/20 10:30 UTC NOAA

Szczecin, Poland (EPSC) 53-24N 014-37E 3M
May 20, 2019 - 06:30 AM EDT / 2019.05.20 1030 UTC
Wind: from the E (090 degrees) at 12 MPH (10 KT) (direction variable):0
Visibility: greater than 7 mile(s):0
Sky conditions: mostly clear
Temperature: 75 F (24 C)
Dew Point: 59 F (15 C)
Relative Humidity: 57%
Pressure (altimeter): 29.62 in. Hg (1003 hPa)
ob: EPSC 201030Z 09010KT 050V110 9999 FEW038 24/15 Q1003
cycle: 10

Station Type Date Time Source
EPSC TAF 2019/05/20 06:33 UTC NOAA

TAF EPSC 200530Z 2006/2106 05005KT CAVOK
TEMPO 2014/2022 VRB15G25KT 3000 TSRA BKN020CB
TEMPO 2015/2021 1500 +TSRA TSGR BKN005 BKN014CB
BECMG 2021/2023 3000 BR PROB40 2023/2106 0400 FG OVC001

Example: see airport list